Time;durP1;ratioP1;P1;durP2;ratioP2;P2;SDS_P1;SDS_P2;PMS_P1;PMS_P2;Temp;Humidity;BMP_temperature;BMP_pressure;BME280_temperature;BME280_humidity;BME280_pressure;Samples;Min_cycle;Max_cycle;Signal;HPM_P1;HPM_P2
2022/02/06 00:00:48;;;;;;;17.48;3.58;;;7.10;99.90;;;;;;5062853;28;20036;-59
2022/02/06 00:03:14;;;;;;;13.68;3.72;;;7.10;99.90;;;;;;5068680;28;20028;-59
2022/02/06 00:05:40;;;;;;;12.43;4.13;;;7.10;99.90;;;;;;5065356;28;20063;-59
2022/02/06 00:08:10;;;;;;;11.38;3.78;;;7.10;99.90;;;;;;5065802;28;20024;-59
2022/02/06 00:10:37;;;;;;;20.35;4.20;;;7.10;99.90;;;;;;5064719;28;20028;-59
2022/02/06 00:13:03;;;;;;;14.75;4.22;;;7.10;99.90;;;;;;5060113;28;20488;-59
2022/02/06 00:15:28;;;;;;;16.50;4.90;;;7.10;99.90;;;;;;5065450;28;20051;-59
2022/02/06 00:17:54;;;;;;;11.20;3.80;;;7.10;99.90;;;;;;5057638;28;20067;-59
2022/02/06 00:20:22;;;;;;;9.77;3.50;;;7.10;99.90;;;;;;5066313;28;20033;-59
2022/02/06 00:23:00;;;;;;;14.55;3.33;;;7.20;99.90;;;;;;5066624;28;20017;-59
2022/02/06 00:25:36;;;;;;;11.48;3.88;;;7.20;99.90;;;;;;5065644;28;20082;-59
2022/02/06 00:28:21;;;;;;;15.18;4.38;;;7.10;99.90;;;;;;5066558;28;20078;-59
2022/02/06 00:33:24;;;;;;;12.77;3.70;;;7.10;99.90;;;;;;5071313;28;20032;-59
2022/02/06 00:43:22;;;;;;;14.25;5.00;;;7.10;99.90;;;;;;5070215;28;20028;-59
2022/02/06 00:45:47;;;;;;;14.45;4.07;;;7.10;99.90;;;;;;5071627;28;20016;-59
2022/02/06 00:48:14;;;;;;;10.60;3.90;;;7.10;99.90;;;;;;5065895;28;20429;-59
2022/02/06 00:50:45;;;;;;;16.25;3.92;;;7.10;99.90;;;;;;5062595;28;20032;-59
2022/02/06 00:53:16;;;;;;;16.90;4.40;;;7.10;99.90;;;;;;5067192;28;20459;-59
2022/02/06 00:55:43;;;;;;;17.52;3.90;;;7.10;99.90;;;;;;5063387;28;20031;-59
2022/02/06 00:58:09;;;;;;;14.93;4.80;;;7.10;99.90;;;;;;5065850;28;20033;-59
2022/02/06 01:00:34;;;;;;;12.00;4.05;;;7.10;99.90;;;;;;5063326;28;20017;-60
2022/02/06 01:03:00;;;;;;;16.80;5.72;;;7.10;99.90;;;;;;5062185;28;20363;-59
2022/02/06 01:05:25;;;;;;;12.77;3.95;;;7.10;99.90;;;;;;5068977;28;20093;-59
2022/02/06 01:07:53;;;;;;;11.98;4.25;;;7.10;99.90;;;;;;5062792;28;20110;-59
2022/02/06 01:10:18;;;;;;;16.23;4.50;;;7.10;99.90;;;;;;5065207;28;20537;-59
2022/02/06 01:12:51;;;;;;;20.92;5.22;;;7.10;99.90;;;;;;5066045;28;20127;-60
2022/02/06 01:15:21;;;;;;;19.15;4.50;;;7.10;99.90;;;;;;5062714;28;20044;-59
2022/02/06 01:17:56;;;;;;;12.63;5.30;;;7.10;99.90;;;;;;5064680;28;20139;-60
2022/02/06 01:20:28;;;;;;;12.88;4.13;;;7.10;99.90;;;;;;5067435;28;20388;-59
2022/02/06 01:23:03;;;;;;;12.77;4.03;;;7.10;99.90;;;;;;5069729;28;20012;-59
2022/02/06 01:25:35;;;;;;;12.75;3.95;;;7.10;99.90;;;;;;5065926;28;20387;-59
2022/02/06 01:28:05;;;;;;;18.23;4.43;;;7.10;99.90;;;;;;5080185;28;20112;-59
2022/02/06 01:33:11;;;;;;;15.40;4.40;;;7.10;99.90;;;;;;5059895;28;20028;-59
2022/02/06 01:35:53;;;;;;;13.45;3.45;;;7.10;99.90;;;;;;5065288;28;20032;-59
2022/02/06 01:40:59;;;;;;;11.15;3.90;;;7.10;99.90;;;;;;5061344;28;20025;-59
2022/02/06 01:43:33;;;;;;;13.85;3.75;;;7.20;99.90;;;;;;5061606;28;20016;-59
2022/02/06 01:46:29;;;;;;;13.75;4.25;;;7.20;99.90;;;;;;5067452;28;20020;-59
2022/02/06 02:03:33;;;;;;;11.75;3.28;;;7.20;99.90;;;;;;5064831;28;20027;-59
2022/02/06 02:13:57;;;;;;;9.07;3.40;;;7.20;99.90;;;;;;5066587;28;20029;-59
2022/02/06 02:22:23;;;;;;;11.75;3.70;;;7.20;99.90;;;;;;5063048;28;20472;-59
2022/02/06 02:27:23;;;;;;;7.93;3.65;;;7.20;99.90;;;;;;5065062;28;20423;-59
2022/02/06 02:30:25;;;;;;;10.13;3.80;;;7.20;99.90;;;;;;5060774;28;20048;-59
2022/02/06 02:33:11;;;;;;;13.98;4.15;;;7.20;99.90;;;;;;5061363;28;20116;-59
2022/02/06 02:46:54;;;;;;;11.38;3.90;;;7.10;99.90;;;;;;5042984;28;20046;-60
2022/02/06 02:49:23;;;;;;;8.55;3.80;;;7.10;99.90;;;;;;5078647;28;20134;-60
2022/02/06 02:51:50;;;;;;;10.73;3.50;;;7.10;99.90;;;;;;5071877;28;20032;-59
2022/02/06 02:54:24;;;;;;;14.45;4.63;;;7.10;99.90;;;;;;5069530;28;20043;-60
2022/02/06 02:57:03;;;;;;;11.30;4.18;;;7.10;99.90;;;;;;5072207;28;20099;-59
2022/02/06 02:59:53;;;;;;;14.10;4.33;;;7.10;99.90;;;;;;5067916;28;20024;-60
2022/02/06 03:02:14;;;;;;;11.55;3.72;;;7.10;99.90;;;;;;5064883;28;20496;-60
2022/02/06 03:04:39;;;;;;;11.50;3.75;;;7.10;99.90;;;;;;5065992;28;20021;-59
2022/02/06 03:07:06;;;;;;;11.05;3.67;;;7.10;99.90;;;;;;5062599;28;20052;-59
2022/02/06 03:09:37;;;;;;;7.13;3.45;;;7.10;99.90;;;;;;5062672;28;20020;-59
2022/02/06 03:12:03;;;;;;;8.30;3.95;;;7.10;99.90;;;;;;5066243;28;20476;-59
2022/02/06 03:14:40;;;;;;;10.35;3.80;;;7.10;99.90;;;;;;5063166;28;20076;-59
2022/02/06 03:17:06;;;;;;;16.50;3.55;;;7.10;99.90;;;;;;5064393;28;20377;-59
2022/02/06 03:19:40;;;;;;;11.60;3.60;;;7.10;99.90;;;;;;5063357;28;20479;-59
2022/02/06 03:22:06;;;;;;;10.98;3.67;;;7.10;99.90;;;;;;5065309;28;20027;-59
2022/02/06 03:24:40;;;;;;;11.60;3.42;;;7.10;99.90;;;;;;5068684;28;20379;-59
2022/02/06 03:27:05;;;;;;;14.23;4.20;;;7.10;99.90;;;;;;5066196;28;20021;-59
2022/02/06 03:29:31;;;;;;;11.25;3.28;;;7.00;99.90;;;;;;5061671;28;20039;-59
2022/02/06 03:31:56;;;;;;;11.63;3.70;;;7.10;99.90;;;;;;5065092;28;20029;-60
2022/02/06 03:34:22;;;;;;;10.30;3.30;;;7.00;99.90;;;;;;5068587;28;20034;-59
2022/02/06 03:36:48;;;;;;;14.05;3.65;;;7.00;99.90;;;;;;5077907;28;20098;-59
2022/02/06 03:39:16;;;;;;;8.68;3.35;;;7.00;99.90;;;;;;5065757;28;20085;-60
2022/02/06 03:41:53;;;;;;;10.07;3.35;;;7.00;99.90;;;;;;5068346;28;20012;-60
2022/02/06 03:44:37;;;;;;;6.20;3.05;;;7.10;99.90;;;;;;5063007;28;20029;-59
2022/02/06 03:47:12;;;;;;;11.65;3.42;;;7.00;99.90;;;;;;5062684;28;20488;-60
2022/02/06 03:52:22;;;;;;;10.43;3.80;;;7.00;99.90;;;;;;5064168;28;20029;-60
2022/02/06 03:54:47;;;;;;;8.38;3.17;;;7.00;99.90;;;;;;5069488;28;20028;-60
2022/02/06 03:57:13;;;;;;;9.45;3.50;;;7.00;99.90;;;;;;5068399;28;20033;-59
2022/02/06 03:59:38;;;;;;;10.77;3.60;;;7.00;99.90;;;;;;5072240;28;20518;-59
2022/02/06 04:02:05;;;;;;;7.07;3.03;;;7.00;99.90;;;;;;5070898;28;20013;-59
2022/02/06 04:04:31;;;;;;;7.40;3.30;;;7.00;99.90;;;;;;5067886;28;20365;-59
2022/02/06 04:07:04;;;;;;;7.45;3.83;;;7.10;99.90;;;;;;5068898;28;20543;-59
2022/02/06 04:09:36;;;;;;;8.27;3.72;;;7.00;99.90;;;;;;5070473;28;20027;-59
2022/02/06 04:12:03;;;;;;;6.85;3.75;;;7.10;99.90;;;;;;5072005;28;20391;-59
2022/02/06 04:14:32;;;;;;;7.50;3.65;;;7.10;99.90;;;;;;5069235;28;20553;-59
2022/02/06 04:17:07;;;;;;;7.00;4.35;;;7.10;99.90;;;;;;5069366;28;20025;-59
2022/02/06 04:19:32;;;;;;;9.00;3.90;;;7.10;99.90;;;;;;5070767;28;20021;-59
2022/02/06 04:21:58;;;;;;;12.70;4.53;;;7.10;99.90;;;;;;5072082;28;20039;-59
2022/02/06 04:24:24;;;;;;;7.78;3.75;;;7.10;99.90;;;;;;5061235;28;20025;-59
2022/02/06 04:26:52;;;;;;;7.85;3.53;;;7.10;99.90;;;;;;5070307;28;20070;-59
2022/02/06 04:29:18;;;;;;;11.90;4.30;;;7.10;99.90;;;;;;5068209;28;20029;-59
2022/02/06 04:31:45;;;;;;;10.50;3.85;;;7.10;99.90;;;;;;5069157;28;20085;-59
2022/02/06 04:34:10;;;;;;;8.65;3.97;;;7.10;99.90;;;;;;5069030;28;20050;-59
2022/02/06 04:36:51;;;;;;;7.97;4.47;;;7.10;99.90;;;;;;5071798;28;20094;-59
2022/02/06 04:39:39;;;;;;;11.57;4.40;;;7.10;99.90;;;;;;5063610;28;20025;-59
2022/02/06 05:11:47;;;;;;;9.48;5.50;;;7.30;99.90;;;;;;5065154;28;20178;-59
2022/02/06 05:20:22;;;;;;;11.32;5.20;;;7.30;99.90;;;;;;5067231;28;20024;-59
2022/02/06 05:23:31;;;;;;;10.60;5.60;;;7.40;99.90;;;;;;5068298;28;20136;-59
2022/02/06 05:33:14;;;;;;;12.05;6.07;;;7.40;99.90;;;;;;5066917;28;20438;-59
2022/02/06 05:35:40;;;;;;;14.27;6.32;;;7.50;99.90;;;;;;5067675;28;20125;-59
2022/02/06 05:38:05;;;;;;;14.73;7.20;;;7.50;99.90;;;;;;5066991;28;20029;-59
2022/02/06 05:40:31;;;;;;;10.88;5.95;;;7.50;99.90;;;;;;5068997;28;20476;-59
2022/02/06 05:42:56;;;;;;;10.60;5.90;;;7.60;99.90;;;;;;5065505;28;20023;-59
2022/02/06 05:45:22;;;;;;;12.20;6.07;;;7.60;99.90;;;;;;5068560;28;20472;-59
2022/02/06 05:47:48;;;;;;;12.80;6.32;;;7.60;99.90;;;;;;5070626;28;20024;-59
2022/02/06 05:50:15;;;;;;;10.27;6.15;;;7.60;99.90;;;;;;5075296;28;20033;-59
2022/02/06 05:52:41;;;;;;;11.23;6.30;;;7.60;99.90;;;;;;5068031;28;20029;-58
2022/02/06 05:55:08;;;;;;;8.70;5.97;;;7.60;99.90;;;;;;5070154;28;20032;-59
2022/02/06 05:57:34;;;;;;;12.48;6.53;;;7.60;99.90;;;;;;5069150;28;20054;-59
2022/02/06 05:59:59;;;;;;;12.13;6.13;;;7.60;99.90;;;;;;5064540;28;20043;-59
2022/02/06 06:02:25;;;;;;;11.02;6.07;;;7.60;99.90;;;;;;5070188;28;20024;-59
2022/02/06 06:04:50;;;;;;;12.65;6.95;;;7.60;99.90;;;;;;5069996;28;20107;-59
2022/02/06 06:07:16;;;;;;;12.95;6.55;;;7.60;99.90;;;;;;5072870;28;20138;-60
2022/02/06 06:09:42;;;;;;;10.75;5.60;;;7.60;99.90;;;;;;5068410;28;20377;-59
2022/02/06 06:12:08;;;;;;;10.35;6.13;;;7.60;99.90;;;;;;5069866;28;20028;-59
2022/02/06 06:14:34;;;;;;;11.07;6.30;;;7.60;99.90;;;;;;5061252;28;20122;-59
2022/02/06 06:16:59;;;;;;;10.63;6.80;;;7.60;99.90;;;;;;5065661;28;20028;-59
2022/02/06 06:19:25;;;;;;;11.98;6.35;;;7.60;99.90;;;;;;5067149;28;20035;-59
2022/02/06 06:21:55;;;;;;;10.77;7.60;;;7.60;99.90;;;;;;5066820;28;20489;-59
2022/02/06 06:24:23;;;;;;;11.68;6.72;;;7.60;99.90;;;;;;5069652;28;20020;-59
2022/02/06 06:26:48;;;;;;;11.40;6.80;;;7.60;99.90;;;;;;5069694;28;20021;-59
2022/02/06 06:29:14;;;;;;;12.48;6.88;;;7.60;99.90;;;;;;5064939;28;20040;-59
2022/02/06 06:31:39;;;;;;;12.13;6.53;;;7.60;99.90;;;;;;5065952;28;20583;-59
2022/02/06 06:34:05;;;;;;;8.93;6.22;;;7.60;99.90;;;;;;5069301;28;20031;-59
2022/02/06 06:36:32;;;;;;;9.00;6.05;;;7.60;99.90;;;;;;5069390;28;20397;-60
2022/02/06 06:38:58;;;;;;;8.18;6.32;;;7.60;99.90;;;;;;5066926;28;20452;-59
2022/02/06 06:41:23;;;;;;;7.72;6.18;;;7.60;99.90;;;;;;5066507;28;20044;-59
2022/02/06 06:43:49;;;;;;;8.85;6.72;;;7.60;99.90;;;;;;5069409;28;20115;-59
2022/02/06 06:46:14;;;;;;;11.60;7.05;;;7.60;99.90;;;;;;5072646;28;20060;-59
2022/02/06 06:48:40;;;;;;;11.48;6.60;;;7.60;99.90;;;;;;5073052;28;20055;-59
2022/02/06 06:51:09;;;;;;;9.23;6.68;;;7.60;99.90;;;;;;5073003;28;20028;-59
2022/02/06 06:53:38;;;;;;;10.45;7.07;;;7.60;99.90;;;;;;5073216;28;20392;-59
2022/02/06 06:56:10;;;;;;;11.85;6.35;;;7.60;99.90;;;;;;5092220;28;20488;-59
2022/02/06 06:58:41;;;;;;;9.25;7.00;;;7.60;99.90;;;;;;5091925;28;20535;-59
2022/02/06 07:01:41;;;;;;;12.35;7.80;;;7.60;99.90;;;;;;5092131;28;20016;-59
2022/02/06 07:03:56;;;;;;;12.75;7.28;;;7.60;99.90;;;;;;5076023;28;20531;-59
2022/02/06 07:06:21;;;;;;;13.70;7.00;;;7.60;99.90;;;;;;5071544;28;20107;-59
2022/02/06 07:08:47;;;;;;;9.73;7.38;;;7.60;99.90;;;;;;5072646;28;20107;-59
2022/02/06 07:11:12;;;;;;;12.40;7.15;;;7.60;99.90;;;;;;5072942;28;20063;-59
2022/02/06 07:13:37;;;;;;;8.13;6.75;;;7.60;99.90;;;;;;5072882;28;20092;-59
2022/02/06 07:16:06;;;;;;;10.82;7.40;;;7.60;99.90;;;;;;5072458;28;20064;-59
2022/02/06 07:18:31;;;;;;;10.88;6.93;;;7.60;99.90;;;;;;5073164;28;20082;-59
2022/02/06 07:20:57;;;;;;;10.20;7.15;;;7.60;99.90;;;;;;5072779;28;20401;-59
2022/02/06 07:23:22;;;;;;;11.63;7.07;;;7.70;99.90;;;;;;5072916;28;20472;-59
2022/02/06 07:25:51;;;;;;;11.40;7.88;;;7.70;99.90;;;;;;5072677;28;20506;-59
2022/02/06 07:28:18;;;;;;;13.02;7.63;;;7.70;99.90;;;;;;5072226;28;20023;-59
2022/02/06 07:30:46;;;;;;;11.52;7.63;;;7.70;99.90;;;;;;5071191;28;20115;-59
2022/02/06 07:33:13;;;;;;;10.55;7.93;;;7.70;99.90;;;;;;5072726;28;20029;-59
2022/02/06 07:35:39;;;;;;;11.07;7.68;;;7.70;99.90;;;;;;5072892;28;20111;-59
2022/02/06 07:38:06;;;;;;;14.95;7.78;;;7.70;99.90;;;;;;5072626;28;20158;-59
2022/02/06 07:40:32;;;;;;;11.70;7.20;;;7.70;99.90;;;;;;5071389;28;20490;-59
2022/02/06 07:42:57;;;;;;;12.57;8.40;;;7.80;99.90;;;;;;5072512;28;20123;-59
2022/02/06 07:45:23;;;;;;;11.70;8.57;;;7.80;99.90;;;;;;5071547;28;20029;-59
2022/02/06 07:47:49;;;;;;;11.45;8.55;;;7.80;99.90;;;;;;5072613;28;20476;-59
2022/02/06 07:50:16;;;;;;;11.90;8.73;;;7.80;99.90;;;;;;5072620;28;20060;-59
2022/02/06 07:52:42;;;;;;;13.05;9.90;;;7.80;99.90;;;;;;5072606;28;20024;-59
2022/02/06 07:55:09;;;;;;;13.65;9.20;;;7.80;99.90;;;;;;5071030;28;20036;-59
2022/02/06 07:57:35;;;;;;;13.57;9.00;;;7.80;99.90;;;;;;5072394;28;20033;-58
2022/02/06 08:00:03;;;;;;;12.80;8.85;;;7.80;99.90;;;;;;5072666;28;20052;-60
2022/02/06 08:02:29;;;;;;;15.73;9.23;;;7.80;99.90;;;;;;5071583;28;20388;-59
2022/02/06 08:04:56;;;;;;;10.85;8.98;;;7.90;99.90;;;;;;5068966;28;20039;-59
2022/02/06 08:07:21;;;;;;;13.05;8.82;;;7.90;99.90;;;;;;5067943;28;20365;-59
2022/02/06 08:09:56;;;;;;;12.38;8.30;;;7.80;99.90;;;;;;5067320;28;20078;-59
2022/02/06 08:12:28;;;;;;;15.50;9.50;;;7.90;99.90;;;;;;5066290;28;20024;-59
2022/02/06 08:14:55;;;;;;;12.27;8.43;;;7.90;99.90;;;;;;5067552;28;20088;-59
2022/02/06 08:17:28;;;;;;;10.50;7.63;;;7.90;99.90;;;;;;5066935;28;20094;-59
2022/02/06 08:19:55;;;;;;;12.48;7.80;;;7.90;99.90;;;;;;5069256;28;20025;-59
2022/02/06 08:22:22;;;;;;;14.00;7.68;;;7.90;99.90;;;;;;5069401;28;20043;-59
2022/02/06 08:24:49;;;;;;;11.05;6.65;;;7.90;99.90;;;;;;5069364;28;20028;-58
2022/02/06 08:27:15;;;;;;;8.52;6.10;;;7.90;99.90;;;;;;5067182;28;20036;-59
2022/02/06 08:29:44;;;;;;;11.45;6.25;;;7.90;99.90;;;;;;5037915;28;20070;-59
2022/02/06 08:32:10;;;;;;;10.43;6.70;;;7.90;99.90;;;;;;5062411;28;20033;-58
2022/02/06 08:34:36;;;;;;;7.43;5.07;;;7.90;99.90;;;;;;5068928;28;20037;-59
2022/02/06 08:37:05;;;;;;;7.45;4.82;;;7.90;99.90;;;;;;5067565;28;20028;-58
2022/02/06 08:39:32;;;;;;;5.68;4.15;;;7.90;99.90;;;;;;5066783;28;20028;-59
2022/02/06 08:41:59;;;;;;;6.95;3.58;;;7.90;99.90;;;;;;5069380;28;20060;-59
2022/02/06 08:44:25;;;;;;;5.90;3.13;;;7.90;99.90;;;;;;5072452;28;20058;-59
2022/02/06 08:46:50;;;;;;;10.85;4.18;;;7.80;99.90;;;;;;5072355;28;20476;-59
2022/02/06 08:49:16;;;;;;;5.03;3.50;;;7.80;99.90;;;;;;5070567;28;20040;-59
2022/02/06 08:51:45;;;;;;;6.22;4.15;;;7.80;99.90;;;;;;5060786;28;20028;-58
2022/02/06 08:54:10;;;;;;;6.97;3.60;;;7.80;99.90;;;;;;5062908;28;20035;-59
2022/02/06 08:56:39;;;;;;;5.22;3.60;;;7.80;99.90;;;;;;5068423;28;20029;-59
2022/02/06 08:59:06;;;;;;;7.35;4.07;;;7.80;99.90;;;;;;5060020;28;20433;-59
2022/02/06 09:01:32;;;;;;;6.53;3.95;;;7.80;99.90;;;;;;5062874;28;20016;-59
2022/02/06 09:03:57;;;;;;;9.18;4.00;;;7.90;99.90;;;;;;5058420;28;20388;-58
2022/02/06 09:06:23;;;;;;;8.80;4.45;;;7.80;99.90;;;;;;5059214;28;20032;-58
2022/02/06 09:08:54;;;;;;;7.03;4.53;;;7.80;99.90;;;;;;5060890;28;20016;-59
2022/02/06 09:11:20;;;;;;;6.60;4.80;;;7.90;99.90;;;;;;5070601;28;20074;-59
2022/02/06 09:13:46;;;;;;;6.10;4.78;;;7.90;99.90;;;;;;5059607;28;20025;-59
2022/02/06 09:16:12;;;;;;;9.70;4.53;;;7.90;99.90;;;;;;5070651;28;20447;-59
2022/02/06 09:18:37;;;;;;;8.70;4.90;;;7.90;99.90;;;;;;5080959;28;20060;-59
2022/02/06 09:21:03;;;;;;;7.75;4.22;;;7.90;99.90;;;;;;5071718;28;20044;-59
2022/02/06 09:23:28;;;;;;;6.90;5.82;;;7.90;99.90;;;;;;5053537;28;20021;-59
2022/02/06 09:25:54;;;;;;;8.63;3.90;;;8.00;99.90;;;;;;5060595;28;20044;-59
2022/02/06 09:28:20;;;;;;;7.55;4.45;;;7.90;99.90;;;;;;5085608;28;20052;-58
2022/02/06 09:30:45;;;;;;;9.98;4.55;;;7.90;99.90;;;;;;5071303;28;20560;-59
2022/02/06 09:35:37;;;;;;;10.73;4.65;;;8.00;99.90;;;;;;5054499;28;20476;-59
2022/02/06 09:38:03;;;;;;;6.93;4.32;;;8.00;99.90;;;;;;5064583;28;20086;-59
2022/02/06 09:40:37;;;;;;;11.90;4.47;;;8.00;99.90;;;;;;5070898;28;20037;-59
2022/02/06 09:43:03;;;;;;;10.13;4.72;;;8.00;99.90;;;;;;5055600;28;20025;-59
2022/02/06 09:45:30;;;;;;;5.88;4.32;;;8.00;99.90;;;;;;5061436;28;20019;-59
2022/02/06 09:47:57;;;;;;;6.88;3.75;;;8.00;99.90;;;;;;5065231;28;20016;-59
2022/02/06 09:50:24;;;;;;;7.75;3.95;;;8.00;99.90;;;;;;5065256;28;20016;-58
2022/02/06 09:52:50;;;;;;;5.30;3.35;;;8.00;99.90;;;;;;5068795;28;20111;-59
2022/02/06 09:55:19;;;;;;;5.60;3.53;;;8.00;99.90;;;;;;5067919;28;20067;-58
2022/02/06 09:58:00;;;;;;;4.43;3.28;;;8.00;99.90;;;;;;5068921;28;20024;-58
2022/02/06 10:00:29;;;;;;;6.85;3.40;;;8.10;99.90;;;;;;5065935;28;20120;-59
2022/02/06 10:03:02;;;;;;;6.13;2.83;;;8.00;99.90;;;;;;5069978;28;20040;-58
2022/02/06 10:05:33;;;;;;;5.15;2.65;;;8.00;99.90;;;;;;5069238;28;20056;-59
2022/02/06 10:08:28;;;;;;;4.43;2.13;;;8.00;99.90;;;;;;5070109;28;20488;-58
2022/02/06 10:11:15;;;;;;;3.85;2.22;;;8.10;99.90;;;;;;5070449;28;20037;-58
2022/02/06 10:13:42;;;;;;;2.42;1.80;;;8.00;99.90;;;;;;5068738;28;20540;-58
2022/02/06 10:16:11;;;;;;;5.28;2.20;;;8.10;99.90;;;;;;5068488;28;20178;-58
2022/02/06 10:18:37;;;;;;;6.10;2.60;;;8.10;99.90;;;;;;5068091;28;20067;-58
2022/02/06 10:21:05;;;;;;;5.78;2.40;;;8.10;99.90;;;;;;5068096;28;20456;-59
2022/02/06 10:23:40;;;;;;;5.25;2.25;;;8.10;99.90;;;;;;5068874;28;20493;-58
2022/02/06 10:26:26;;;;;;;4.97;3.95;;;8.00;99.90;;;;;;5065475;28;20491;-59
2022/02/06 10:31:44;;;;;;;6.45;2.50;;;8.10;99.90;;;;;;5070484;28;20555;-59
2022/02/06 10:34:24;;;;;;;3.95;2.58;;;8.00;99.90;;;;;;5068541;28;20438;-59
2022/02/06 10:36:51;;;;;;;6.03;2.35;;;8.10;99.90;;;;;;5068775;28;20476;-58
2022/02/06 10:39:23;;;;;;;3.70;2.75;;;8.00;99.90;;;;;;5065969;28;20045;-59
2022/02/06 10:41:49;;;;;;;5.88;2.72;;;8.10;99.90;;;;;;5064295;28;20484;-58
2022/02/06 10:44:16;;;;;;;5.90;2.85;;;8.10;99.90;;;;;;5065872;28;20036;-58
2022/02/06 10:46:43;;;;;;;7.68;2.83;;;8.10;99.90;;;;;;5067326;28;20103;-58
2022/02/06 10:49:17;;;;;;;5.63;2.05;;;8.10;99.90;;;;;;5063714;28;20116;-58
2022/02/06 10:51:49;;;;;;;5.35;3.03;;;8.10;99.90;;;;;;5064804;28;20488;-58
2022/02/06 10:54:29;;;;;;;3.25;2.33;;;8.10;99.90;;;;;;5064519;28;20576;-59
2022/02/06 10:56:58;;;;;;;3.22;2.40;;;8.10;99.90;;;;;;5069457;28;20060;-58
2022/02/06 10:59:24;;;;;;;2.58;1.90;;;8.00;99.90;;;;;;5068423;28;20036;-58
2022/02/06 11:01:49;;;;;;;3.95;2.17;;;8.00;99.90;;;;;;5053415;28;20507;-58
2022/02/06 11:04:25;;;;;;;2.65;1.73;;;8.10;99.90;;;;;;5065113;28;20023;-58
2022/02/06 11:07:06;;;;;;;6.10;2.20;;;8.00;99.90;;;;;;5068641;28;20476;-58
2022/02/06 11:09:31;;;;;;;3.90;1.80;;;8.00;99.90;;;;;;5068936;28;20027;-59
2022/02/06 11:11:59;;;;;;;4.05;2.38;;;8.00;99.90;;;;;;5067750;28;20017;-58
2022/02/06 11:14:26;;;;;;;3.15;1.75;;;8.10;99.90;;;;;;5058410;28;20541;-58
2022/02/06 11:16:52;;;;;;;2.80;2.03;;;8.00;99.90;;;;;;5044873;28;20439;-58
2022/02/06 11:19:20;;;;;;;5.40;2.10;;;8.00;99.90;;;;;;5064779;28;20032;-58
2022/02/06 11:21:47;;;;;;;5.70;2.20;;;8.10;99.90;;;;;;5036127;28;20079;-59
2022/02/06 11:24:20;;;;;;;3.78;1.70;;;8.10;99.90;;;;;;5034760;28;20277;-59
2022/02/06 11:26:47;;;;;;;4.75;2.10;;;8.10;99.90;;;;;;5023772;28;20166;-59
2022/02/06 11:29:14;;;;;;;6.85;2.53;;;8.10;99.90;;;;;;5062207;28;20120;-58
2022/02/06 11:31:40;;;;;;;4.30;2.13;;;8.10;99.90;;;;;;5070634;28;20103;-58
2022/02/06 11:34:06;;;;;;;4.13;2.22;;;8.10;99.90;;;;;;5070204;28;20199;-58
2022/02/06 11:45:26;;;;;;;3.08;1.58;;;8.20;99.90;;;;;;5069093;28;20454;-58
2022/02/06 11:47:57;;;;;;;3.88;2.13;;;8.20;99.90;;;;;;5064725;28;20021;-58
2022/02/06 11:50:24;;;;;;;3.95;1.90;;;8.20;99.90;;;;;;5060503;28;20028;-58
2022/02/06 11:52:54;;;;;;;4.93;1.50;;;8.20;99.90;;;;;;5068354;28;20028;-58
2022/02/06 11:55:45;;;;;;;10.32;1.30;;;8.30;99.90;;;;;;5069706;28;20090;-58
2022/02/06 11:58:28;;;;;;;8.82;0.80;;;8.20;99.90;;;;;;5064284;28;20078;-58
2022/02/06 12:01:05;;;;;;;2.58;0.30;;;8.10;99.90;;;;;;5066142;28;20028;-59
2022/02/06 12:03:50;;;;;;;4.95;0.40;;;7.90;99.90;;;;;;5067446;28;20027;-58
2022/02/06 12:06:18;;;;;;;0.82;0.35;;;7.80;99.90;;;;;;5066831;28;20033;-58
2022/02/06 12:08:44;;;;;;;3.47;0.28;;;7.60;99.90;;;;;;5067607;28;20017;-58
2022/02/06 12:11:13;;;;;;;0.80;0.20;;;7.50;99.90;;;;;;5067459;28;20021;-58
2022/02/06 12:13:38;;;;;;;0.93;0.30;;;7.40;99.90;;;;;;5069062;28;20028;-58
2022/02/06 12:16:06;;;;;;;0.30;0.10;;;7.30;99.90;;;;;;5072505;28;20053;-58
2022/02/06 12:18:38;;;;;;;2.80;0.10;;;7.30;99.90;;;;;;5073143;28;20021;-58
2022/02/06 12:21:18;;;;;;;2.35;0.20;;;7.20;99.90;;;;;;5073331;28;20037;-58
2022/02/06 12:24:01;;;;;;;0.55;0.10;;;7.20;99.90;;;;;;5068631;28;20108;-58
2022/02/06 12:26:30;;;;;;;3.03;0.30;;;7.10;99.90;;;;;;5072009;28;20032;-58
2022/02/06 12:28:59;;;;;;;1.95;0.30;;;7.10;99.90;;;;;;5070427;28;20020;-58
2022/02/06 12:31:30;;;;;;;3.75;0.22;;;7.10;99.90;;;;;;5069357;28;20060;-58
2022/02/06 12:34:10;;;;;;;3.30;0.30;;;7.10;99.90;;;;;;5071258;28;20108;-58
2022/02/06 12:39:32;;;;;;;0.65;0.20;;;7.10;99.90;;;;;;5069928;28;20089;-58
2022/02/06 12:41:59;;;;;;;5.32;0.40;;;7.00;99.90;;;;;;5071671;28;20031;-58
2022/02/06 12:44:27;;;;;;;4.18;0.30;;;7.00;99.90;;;;;;5072322;28;20047;-58
2022/02/06 12:46:58;;;;;;;2.63;0.30;;;7.10;99.90;;;;;;5064412;28;20028;-58
2022/02/06 12:49:34;;;;;;;3.13;0.50;;;7.10;99.90;;;;;;5063988;28;20491;-58
2022/02/06 12:52:02;;;;;;;3.15;0.40;;;7.10;99.90;;;;;;5055214;28;20033;-58
2022/02/06 12:54:28;;;;;;;3.55;0.30;;;7.10;99.90;;;;;;5070381;28;20024;-58
2022/02/06 12:56:56;;;;;;;2.65;0.30;;;7.10;99.90;;;;;;5064208;28;20076;-58
2022/02/06 12:59:24;;;;;;;5.07;0.40;;;7.10;99.90;;;;;;5063632;28;20597;-59
2022/02/06 13:01:53;;;;;;;3.67;0.80;;;7.10;99.90;;;;;;5058919;28;20060;-58
2022/02/06 13:04:26;;;;;;;3.80;0.57;;;7.10;99.90;;;;;;5070171;28;20017;-58
2022/02/06 13:06:52;;;;;;;6.72;0.55;;;7.20;99.90;;;;;;5071529;28;20435;-59
2022/02/06 13:09:25;;;;;;;7.30;0.80;;;7.20;99.90;;;;;;5061867;28;20033;-58
2022/02/06 13:12:22;;;;;;;3.17;0.32;;;7.20;99.90;;;;;;5071742;28;20028;-59
2022/02/06 13:18:03;;;;;;;3.33;0.60;;;7.20;99.90;;;;;;5072062;28;20506;-59
2022/02/06 13:20:57;;;;;;;3.80;0.30;;;7.20;99.90;;;;;;5055523;28;20039;-59
2022/02/06 13:23:47;;;;;;;4.18;0.32;;;7.30;99.90;;;;;;5060334;28;20029;-59
2022/02/06 13:26:41;;;;;;;4.20;0.40;;;7.30;99.90;;;;;;5067511;28;20112;-58
2022/02/06 13:29:25;;;;;;;7.70;0.50;;;7.30;99.90;;;;;;5069079;28;20687;-59
2022/02/06 13:32:12;;;;;;;5.53;0.90;;;7.40;99.90;;;;;;5068999;28;20020;-59
2022/02/06 13:34:50;;;;;;;3.58;0.50;;;7.40;99.90;;;;;;5067116;28;20468;-59
2022/02/06 13:37:26;;;;;;;4.43;0.40;;;7.40;99.90;;;;;;5070230;28;20064;-59
2022/02/06 13:39:56;;;;;;;8.32;0.80;;;7.40;99.90;;;;;;5070075;28;20552;-58
2022/02/06 13:42:30;;;;;;;6.05;0.50;;;7.50;99.90;;;;;;5068575;28;20115;-59
2022/02/06 13:45:11;;;;;;;4.07;0.52;;;7.50;99.90;;;;;;5070010;28;20174;-59
2022/02/06 13:47:37;;;;;;;2.08;0.47;;;7.50;99.90;;;;;;5069260;28;20067;-59
2022/02/06 13:50:07;;;;;;;4.60;1.15;;;7.50;99.90;;;;;;5069749;28;20059;-59
2022/02/06 13:52:33;;;;;;;4.50;0.65;;;7.50;99.90;;;;;;5070111;28;20025;-59
2022/02/06 13:55:04;;;;;;;4.80;0.63;;;7.50;99.90;;;;;;5071888;28;20035;-59
2022/02/06 13:57:37;;;;;;;9.80;0.80;;;7.60;99.90;;;;;;5070015;28;20075;-58
2022/02/06 14:00:13;;;;;;;9.73;0.90;;;7.60;99.90;;;;;;5067079;28;20027;-59
2022/02/06 14:02:50;;;;;;;8.98;0.80;;;7.60;99.90;;;;;;5067025;28;20032;-59
2022/02/06 14:05:16;;;;;;;6.80;0.80;;;7.70;99.90;;;;;;5062209;28;20021;-59
2022/02/06 14:07:41;;;;;;;8.90;0.70;;;7.70;99.90;;;;;;5070533;28;20073;-59
2022/02/06 14:10:14;;;;;;;8.13;0.73;;;7.70;99.90;;;;;;5070388;28;20070;-59
2022/02/06 14:12:51;;;;;;;11.70;0.55;;;7.80;99.90;;;;;;5063132;28;20047;-59
2022/02/06 14:15:28;;;;;;;10.93;1.15;;;7.80;99.90;;;;;;5076085;28;20078;-59
2022/02/06 14:17:57;;;;;;;6.57;1.48;;;7.80;99.90;;;;;;5066145;28;20044;-59
2022/02/06 14:20:25;;;;;;;5.93;0.70;;;7.80;99.90;;;;;;5066944;28;20476;-59
2022/02/06 14:22:54;;;;;;;7.82;1.17;;;7.80;99.90;;;;;;5057953;28;20021;-59
2022/02/06 14:25:46;;;;;;;4.43;0.55;;;7.80;99.90;;;;;;5056996;28;20035;-59
2022/02/06 14:28:26;;;;;;;6.70;0.88;;;7.90;99.90;;;;;;5021025;28;20505;-59
2022/02/06 14:30:52;;;;;;;8.65;0.60;;;7.90;99.90;;;;;;5023889;28;20029;-59
2022/02/06 14:33:22;;;;;;;4.15;0.60;;;7.90;99.90;;;;;;5057317;28;20369;-59
2022/02/06 14:35:54;;;;;;;6.78;0.80;;;7.90;99.90;;;;;;5069853;28;20028;-58
2022/02/06 14:38:41;;;;;;;6.45;1.02;;;7.90;99.90;;;;;;5052425;28;20035;-59
2022/02/06 14:41:34;;;;;;;9.10;0.90;;;7.90;99.90;;;;;;5069795;28;20372;-59
2022/02/06 14:44:04;;;;;;;5.20;0.75;;;8.00;99.90;;;;;;5070096;28;20016;-59
2022/02/06 14:46:35;;;;;;;7.72;0.80;;;8.00;99.90;;;;;;5070007;28;20024;-59
2022/02/06 14:49:06;;;;;;;8.55;0.73;;;8.00;99.90;;;;;;5069933;28;20020;-59
2022/02/06 14:51:33;;;;;;;6.20;1.10;;;8.00;99.90;;;;;;5056833;28;20021;-59
2022/02/06 14:54:00;;;;;;;7.15;0.55;;;8.00;99.90;;;;;;5067392;28;20032;-59
2022/02/06 14:56:27;;;;;;;4.47;0.50;;;8.10;99.90;;;;;;5069318;28;20099;-59
2022/02/06 14:58:52;;;;;;;5.72;0.68;;;8.10;99.90;;;;;;5062054;28;20465;-59
2022/02/06 15:01:18;;;;;;;6.68;0.80;;;8.10;99.90;;;;;;5075861;28;20101;-59
2022/02/06 15:03:43;;;;;;;3.95;0.80;;;8.10;99.90;;;;;;5054727;28;20028;-59
2022/02/06 15:06:09;;;;;;;7.30;0.80;;;8.20;99.90;;;;;;5081417;28;20044;-59
2022/02/06 15:08:34;;;;;;;8.27;1.08;;;8.20;99.90;;;;;;5054857;28;20029;-59
2022/02/06 15:11:00;;;;;;;6.97;0.80;;;8.20;99.90;;;;;;5069101;28;20028;-59